createdAt,value
2017-09-30T07:09:41.020Z,28.70
2017-09-30T07:12:07.759Z,21.98
2017-09-30T07:14:36.347Z,19.85
2017-09-30T07:17:04.699Z,22.17
2017-09-30T07:19:31.990Z,18.65
2017-09-30T07:24:31.924Z,21.85
2017-09-30T08:13:41.021Z,13.10
2017-09-30T08:16:07.755Z,11.70
2017-09-30T08:18:36.115Z,11.50
2017-09-30T09:43:22.059Z,15.82
2017-09-30T09:45:48.816Z,7.47
2017-09-30T09:48:15.535Z,6.45
2017-09-30T09:50:42.266Z,9.15
2017-09-30T09:53:08.994Z,5.82
2017-09-30T09:58:09.306Z,7.22
2017-09-30T10:06:26.270Z,7.65
2017-09-30T10:08:54.618Z,6.62
2017-09-30T10:14:17.211Z,5.15
2017-09-30T10:25:02.854Z,4.07
2017-09-30T10:27:31.198Z,4.22
2017-09-30T10:32:30.551Z,5.90
2017-09-30T10:34:58.916Z,6.30
2017-09-30T10:42:47.783Z,5.78
2017-09-30T10:45:26.369Z,8.23
2017-09-30T12:09:56.770Z,5.45
2017-09-30T12:12:23.514Z,5.15
2017-09-30T12:14:50.234Z,5.45
2017-09-30T12:19:49.591Z,4.57
2017-09-30T12:22:19.900Z,6.07
2017-09-30T12:24:48.264Z,4.60
2017-09-30T12:29:48.639Z,5.62
2017-09-30T12:32:16.963Z,6.03
2017-09-30T12:34:45.447Z,6.28
2017-09-30T12:37:13.811Z,7.15
2017-09-30T12:45:29.335Z,5.45
2017-09-30T13:43:44.854Z,7.03
2017-09-30T13:46:13.218Z,9.25
2017-09-30T13:51:11.166Z,3.20
2017-09-30T13:53:37.920Z,6.40
2017-09-30T13:56:04.622Z,7.03
2017-09-30T13:58:31.359Z,8.15
2017-09-30T14:03:29.096Z,5.55
2017-09-30T14:05:57.466Z,2.53
2017-09-30T14:08:24.226Z,2.90
2017-09-30T14:10:51.450Z,3.95
2017-09-30T14:13:19.802Z,4.43
2017-09-30T14:15:46.561Z,3.45
2017-09-30T14:18:13.284Z,3.17
2017-09-30T14:20:40.011Z,4.68
2017-09-30T14:23:07.071Z,3.97
2017-09-30T14:25:33.798Z,2.70
2017-09-30T14:28:01.349Z,3.45
2017-09-30T14:30:28.446Z,2.17
2017-09-30T14:32:55.567Z,3.05
2017-09-30T14:35:23.078Z,1.90
2017-09-30T14:37:54.933Z,4.18
2017-09-30T14:42:52.651Z,3.12
2017-09-30T14:47:54.377Z,4.15
2017-09-30T14:52:52.146Z,6.75
2017-09-30T14:55:20.758Z,10.65
2017-09-30T14:57:47.815Z,9.55
2017-09-30T15:00:16.179Z,11.38
2017-09-30T15:02:42.907Z,15.27
2017-09-30T15:05:11.288Z,7.78
2017-09-30T15:07:42.072Z,8.50
2017-09-30T15:10:11.984Z,7.45
2017-09-30T15:15:13.633Z,8.45
2017-09-30T15:17:40.603Z,7.10
2017-09-30T15:20:17.190Z,9.13
2017-09-30T15:22:47.246Z,8.25
2017-09-30T15:25:14.776Z,9.60
2017-09-30T15:27:42.514Z,8.82
2017-09-30T15:30:09.647Z,14.45
2017-09-30T15:32:39.058Z,12.63
2017-09-30T15:35:07.282Z,14.90
2017-09-30T15:37:34.012Z,13.25
2017-09-30T15:40:02.623Z,16.33
2017-09-30T15:42:30.343Z,13.15
2017-09-30T15:44:57.943Z,10.48
2017-09-30T15:47:26.752Z,6.50
2017-09-30T15:49:54.283Z,11.57
2017-09-30T15:52:21.566Z,6.03
2017-09-30T15:54:51.271Z,7.78
2017-09-30T16:02:27.411Z,8.30
2017-09-30T16:04:54.572Z,5.40
2017-09-30T16:07:25.096Z,4.82
2017-09-30T16:09:52.666Z,5.57
2017-09-30T16:14:51.306Z,7.25
2017-09-30T16:17:18.353Z,5.25
2017-09-30T16:19:45.063Z,5.80
2017-09-30T16:22:12.180Z,7.45
2017-09-30T16:24:39.270Z,5.65
2017-09-30T16:27:05.960Z,6.75
2017-09-30T16:29:33.108Z,6.37
2017-09-30T16:31:59.841Z,8.27
2017-09-30T16:34:26.566Z,3.78
2017-09-30T16:36:53.248Z,5.07
2017-09-30T16:39:20.262Z,7.15
2017-09-30T16:41:46.972Z,6.32
2017-09-30T16:45:18.815Z,8.30
2017-09-30T16:47:45.549Z,15.75
2017-09-30T16:50:12.306Z,13.60
2017-09-30T16:52:39.038Z,12.73
2017-09-30T16:55:05.770Z,13.65
2017-09-30T16:57:32.562Z,14.68
2017-09-30T16:59:59.349Z,12.50
2017-09-30T17:02:26.421Z,9.82
2017-09-30T17:04:53.483Z,7.65
2017-09-30T17:07:20.204Z,10.10
2017-09-30T17:09:46.938Z,8.77
2017-09-30T17:12:13.646Z,9.88
2017-09-30T17:14:40.375Z,6.80
2017-09-30T17:22:09.135Z,13.02
2017-09-30T17:24:36.338Z,12.88
2017-09-30T17:27:03.154Z,14.35
2017-09-30T17:29:29.899Z,12.77
2017-09-30T17:31:56.647Z,13.65
2017-09-30T17:34:23.374Z,12.70
2017-09-30T17:36:50.858Z,10.50
2017-09-30T17:39:17.594Z,14.30
2017-09-30T17:41:44.646Z,17.48
2017-09-30T17:44:11.413Z,7.00
2017-09-30T17:46:38.146Z,8.98
2017-09-30T17:49:05.211Z,7.55
2017-09-30T17:51:31.953Z,10.50
2017-09-30T17:53:58.959Z,15.05
2017-09-30T17:56:25.738Z,15.80
2017-09-30T17:58:54.234Z,15.85
2017-09-30T18:01:21.352Z,14.20
2017-09-30T18:03:48.912Z,12.57
2017-09-30T18:08:47.036Z,6.78
2017-09-30T18:11:15.598Z,9.07
2017-09-30T18:16:13.663Z,9.65
2017-09-30T18:21:12.514Z,8.55
2017-09-30T18:33:43.990Z,10.07
2017-09-30T18:36:14.431Z,12.02
2017-09-30T18:46:16.978Z,8.32
2017-09-30T18:48:45.466Z,11.00
2017-09-30T18:58:49.351Z,8.25
2017-09-30T19:01:17.941Z,8.80
2017-09-30T19:08:50.380Z,8.60
2017-09-30T19:18:53.245Z,7.85
2017-09-30T19:23:53.122Z,9.85
2017-09-30T19:26:21.298Z,8.38
2017-09-30T19:31:21.078Z,11.63
2017-09-30T19:43:56.906Z,12.52
2017-09-30T19:48:57.321Z,16.70
2017-09-30T19:53:57.398Z,11.45
2017-09-30T19:56:28.602Z,12.43
2017-09-30T19:58:55.779Z,16.23
2017-09-30T20:01:23.347Z,14.18
2017-09-30T20:06:23.107Z,13.60
2017-09-30T20:11:21.893Z,17.33
2017-09-30T20:13:51.006Z,16.15
2017-09-30T20:16:18.676Z,16.15
2017-09-30T20:18:46.726Z,15.50
2017-09-30T20:21:14.670Z,15.25
2017-09-30T20:23:42.298Z,16.27
2017-09-30T20:26:09.823Z,21.37
2017-09-30T20:28:39.286Z,17.58
2017-09-30T20:31:08.214Z,15.93
2017-09-30T20:33:38.012Z,16.98
2017-09-30T20:36:05.112Z,16.75
2017-09-30T20:38:32.798Z,16.17
2017-09-30T20:41:03.565Z,22.45
2017-09-30T20:43:31.275Z,17.95
2017-09-30T20:45:58.907Z,17.15
2017-09-30T20:48:25.966Z,18.75
2017-09-30T20:53:28.326Z,17.52
2017-09-30T20:55:55.456Z,18.30
2017-09-30T20:58:26.853Z,15.13
2017-09-30T21:00:54.006Z,18.67
2017-09-30T21:03:23.731Z,23.20
2017-09-30T21:18:50.871Z,15.85
2017-09-30T21:21:34.142Z,18.15
2017-09-30T21:37:52.384Z,15.20
